Time;durP1;ratioP1;P1;durP2;ratioP2;P2;SDS_P1;SDS_P2;PMS_P1;PMS_P2;Temp;Humidity;BMP_temperature;BMP_pressure;BME280_temperature;BME280_humidity;BME280_pressure;Samples;Min_cycle;Max_cycle;Signal;HPM_P1;HPM_P2
2022/07/31 00:00:28;;;;;;;4.82;4.32;;;16.50;99.90;;;;;;5009112;28;20025;-32
2022/07/31 00:02:54;;;;;;;4.93;4.50;;;16.60;99.90;;;;;;5004019;28;20707;-32
2022/07/31 00:05:20;;;;;;;4.97;4.47;;;16.70;99.90;;;;;;5007097;28;20033;-32
2022/07/31 00:07:46;;;;;;;5.25;4.75;;;16.70;99.90;;;;;;5008653;28;20042;-33
2022/07/31 00:10:12;;;;;;;4.70;4.30;;;16.80;99.90;;;;;;5005857;28;20052;-33
2022/07/31 00:12:37;;;;;;;4.53;4.13;;;16.90;99.90;;;;;;5004883;28;20120;-32
2022/07/31 00:15:05;;;;;;;5.03;4.13;;;16.90;99.90;;;;;;5003941;28;20034;-32
2022/07/31 00:17:30;;;;;;;4.82;4.43;;;16.90;99.90;;;;;;5004929;28;20026;-33
2022/07/31 00:19:57;;;;;;;4.70;4.30;;;17.00;99.90;;;;;;5006186;28;20034;-33
2022/07/31 00:22:22;;;;;;;4.35;3.88;;;17.00;99.90;;;;;;5003232;28;20539;-32
2022/07/31 00:24:48;;;;;;;4.38;4.03;;;16.90;99.90;;;;;;5006678;28;20061;-32
2022/07/31 00:27:13;;;;;;;4.63;4.22;;;16.80;99.90;;;;;;5005193;28;20069;-32
2022/07/31 00:29:39;;;;;;;4.60;4.20;;;16.80;99.90;;;;;;5004240;28;20395;-32
2022/07/31 00:32:05;;;;;;;4.45;3.83;;;16.80;99.90;;;;;;5004766;28;20058;-33
2022/07/31 00:34:31;;;;;;;3.95;3.65;;;16.80;99.90;;;;;;5006299;28;20387;-32
2022/07/31 00:36:56;;;;;;;4.30;3.63;;;16.90;99.90;;;;;;5020935;28;21069;-32
2022/07/31 00:39:23;;;;;;;4.50;4.10;;;16.80;99.90;;;;;;5005654;28;20040;-32
2022/07/31 00:41:49;;;;;;;5.28;4.40;;;16.80;99.90;;;;;;5005959;28;20026;-32
2022/07/31 00:44:15;;;;;;;4.93;4.40;;;16.70;99.90;;;;;;5008207;28;20045;-33
2022/07/31 00:46:41;;;;;;;4.60;4.20;;;16.70;99.90;;;;;;5002616;28;20030;-33
2022/07/31 00:49:10;;;;;;;4.03;3.70;;;16.60;99.90;;;;;;5006010;28;20044;-32
2022/07/31 00:51:37;;;;;;;6.10;4.07;;;16.50;99.90;;;;;;5005452;28;20106;-34
2022/07/31 00:54:03;;;;;;;4.33;3.30;;;16.50;99.90;;;;;;5005217;28;20575;-33
2022/07/31 00:56:29;;;;;;;4.85;4.45;;;16.60;99.90;;;;;;5004059;28;20022;-33
2022/07/31 00:58:55;;;;;;;4.05;3.75;;;16.40;99.90;;;;;;5005115;28;20095;-33
2022/07/31 01:01:21;;;;;;;4.57;4.18;;;16.10;99.90;;;;;;5005695;28;20037;-39
2022/07/31 01:03:47;;;;;;;4.75;3.90;;;16.10;99.90;;;;;;5008667;28;20412;-38
2022/07/31 01:06:13;;;;;;;3.88;3.53;;;16.10;99.90;;;;;;5006642;28;20029;-40
2022/07/31 01:08:39;;;;;;;4.10;3.80;;;16.20;99.90;;;;;;5007246;28;20096;-39
2022/07/31 01:11:12;;;;;;;5.95;4.20;;;16.20;99.90;;;;;;5006983;28;20058;-40
2022/07/31 01:13:52;;;;;;;4.93;3.63;;;16.30;99.90;;;;;;5007103;28;20408;-40
2022/07/31 01:16:18;;;;;;;4.20;3.80;;;16.30;99.90;;;;;;5003356;28;20030;-39
2022/07/31 01:18:45;;;;;;;4.85;4.35;;;16.30;99.90;;;;;;5004753;28;20026;-38
2022/07/31 01:21:19;;;;;;;4.18;3.88;;;16.00;99.90;;;;;;5007044;28;20399;-41
2022/07/31 01:24:13;;;;;;;4.40;4.00;;;15.90;99.90;;;;;;5007281;28;20029;-39
2022/07/31 01:27:02;;;;;;;4.72;4.28;;;15.50;99.90;;;;;;5005179;28;20033;-37
2022/07/31 01:29:31;;;;;;;3.70;3.40;;;15.30;99.90;;;;;;5007111;28;20044;-40
2022/07/31 01:32:02;;;;;;;4.63;4.22;;;15.10;99.90;;;;;;5005884;28;21428;-38
2022/07/31 01:34:57;;;;;;;4.63;3.75;;;15.20;99.90;;;;;;5004942;28;20434;-39
2022/07/31 01:37:30;;;;;;;4.55;4.18;;;15.20;99.90;;;;;;5001195;28;20042;-39
2022/07/31 01:40:16;;;;;;;4.15;3.75;;;15.20;99.90;;;;;;5007591;28;20037;-40
2022/07/31 01:42:46;;;;;;;4.38;3.92;;;15.30;99.90;;;;;;5007750;28;20038;-36
2022/07/31 01:45:13;;;;;;;4.18;3.72;;;15.50;99.90;;;;;;5004257;28;20104;-40
2022/07/31 01:47:41;;;;;;;4.47;4.07;;;15.60;99.90;;;;;;5005762;28;20034;-37
2022/07/31 01:50:09;;;;;;;5.18;3.80;;;15.60;99.90;;;;;;5008867;28;20549;-38
2022/07/31 01:52:38;;;;;;;4.10;3.80;;;15.70;99.90;;;;;;5006561;28;20113;-40
2022/07/31 01:55:04;;;;;;;3.80;3.50;;;15.70;99.90;;;;;;5005906;28;20038;-39
2022/07/31 01:57:31;;;;;;;4.03;3.63;;;15.70;99.90;;;;;;5008401;28;20037;-37
2022/07/31 02:00:03;;;;;;;3.38;3.17;;;15.50;99.90;;;;;;5006993;28;20029;-39
2022/07/31 02:02:29;;;;;;;3.92;3.63;;;15.50;99.90;;;;;;5007855;28;20046;-39
2022/07/31 02:04:57;;;;;;;4.30;3.58;;;15.50;99.90;;;;;;5007033;28;20120;-40
2022/07/31 02:07:24;;;;;;;4.68;3.58;;;15.60;99.90;;;;;;5005666;28;20125;-38
2022/07/31 02:09:51;;;;;;;5.35;3.78;;;15.60;99.90;;;;;;5006050;28;20060;-37
2022/07/31 02:12:18;;;;;;;5.70;4.00;;;15.60;99.90;;;;;;5005897;28;20087;-38
2022/07/31 02:14:44;;;;;;;4.35;3.70;;;15.60;99.90;;;;;;5009077;28;20149;-39
2022/07/31 02:17:13;;;;;;;3.65;3.42;;;15.70;99.90;;;;;;5006771;28;20030;-37
2022/07/31 02:19:39;;;;;;;;;;;15.70;99.90;;;;;;5008055;28;20164;-40
2022/07/31 02:22:06;;;;;;;3.97;3.60;;;15.60;99.90;;;;;;5006132;28;20010;-37
2022/07/31 02:24:33;;;;;;;3.47;3.17;;;15.40;99.90;;;;;;5006242;28;20124;-40
2022/07/31 02:27:01;;;;;;;3.88;3.58;;;15.30;99.90;;;;;;5003997;28;20034;-39
2022/07/31 02:29:31;;;;;;;5.18;3.75;;;14.80;99.90;;;;;;5005981;28;20034;-40
2022/07/31 02:31:58;;;;;;;3.95;3.60;;;14.50;99.90;;;;;;5004569;28;20042;-40
2022/07/31 02:34:25;;;;;;;4.78;3.90;;;14.40;99.90;;;;;;5004046;28;20053;-39
2022/07/31 02:36:52;;;;;;;4.15;3.75;;;14.20;99.90;;;;;;5002169;28;20037;-40
2022/07/31 02:39:19;;;;;;;4.82;3.90;;;14.20;99.90;;;;;;5004453;28;20037;-40
2022/07/31 02:41:46;;;;;;;4.70;3.60;;;14.20;99.90;;;;;;5006741;28;20026;-38
2022/07/31 02:44:13;;;;;;;3.80;3.50;;;14.40;99.90;;;;;;5004760;28;20029;-37
2022/07/31 02:46:41;;;;;;;3.83;3.53;;;14.40;99.90;;;;;;5003505;28;20372;-36
2022/07/31 02:49:08;;;;;;;4.18;3.78;;;14.60;99.90;;;;;;5004352;28;20395;-37
2022/07/31 02:51:34;;;;;;;4.43;4.00;;;14.70;99.90;;;;;;5002725;28;20041;-36
2022/07/31 02:53:59;;;;;;;4.20;3.80;;;14.80;99.90;;;;;;5008077;28;20026;-36
2022/07/31 02:56:27;;;;;;;3.85;3.55;;;14.90;99.90;;;;;;5004504;28;20120;-36
2022/07/31 02:58:52;;;;;;;3.70;3.40;;;14.80;99.90;;;;;;5019040;28;20160;-36
2022/07/31 03:01:18;;;;;;;3.50;3.30;;;14.40;99.90;;;;;;5003890;28;20065;-37
2022/07/31 03:03:43;;;;;;;4.13;3.72;;;14.40;99.90;;;;;;5005283;28;20045;-38
2022/07/31 03:06:09;;;;;;;4.15;3.78;;;14.30;99.90;;;;;;4999175;28;20562;-40
2022/07/31 03:08:35;;;;;;;3.80;3.47;;;14.10;99.90;;;;;;5001282;28;20026;-40
2022/07/31 03:11:01;;;;;;;4.45;4.05;;;14.00;99.90;;;;;;5003863;28;20040;-36
2022/07/31 03:13:30;;;;;;;3.72;3.42;;;14.00;99.90;;;;;;5005500;28;20153;-37
2022/07/31 03:15:57;;;;;;;4.60;3.53;;;14.10;99.90;;;;;;5004867;28;20026;-37
2022/07/31 03:18:25;;;;;;;3.95;3.45;;;14.30;99.90;;;;;;5003834;28;20511;-37
2022/07/31 03:20:52;;;;;;;4.70;3.70;;;14.50;99.90;;;;;;5004568;28;20085;-36
2022/07/31 03:23:20;;;;;;;3.55;3.25;;;14.60;99.90;;;;;;5005616;28;20042;-37
2022/07/31 03:25:48;;;;;;;3.75;3.42;;;14.60;99.90;;;;;;5004793;28;20046;-39
2022/07/31 03:28:14;;;;;;;5.35;3.70;;;14.60;99.90;;;;;;5005142;28;20042;-39
2022/07/31 03:30:39;;;;;;;3.67;3.38;;;14.70;99.90;;;;;;5003599;28;20061;-39
2022/07/31 03:33:05;;;;;;;3.70;3.40;;;14.80;99.90;;;;;;5008355;28;20257;-39
2022/07/31 03:35:32;;;;;;;4.18;3.75;;;14.70;99.90;;;;;;5006912;28;20112;-38
2022/07/31 03:37:58;;;;;;;4.33;3.50;;;14.80;99.90;;;;;;5006490;28;20029;-37
2022/07/31 03:40:24;;;;;;;3.53;3.22;;;14.80;99.90;;;;;;5008066;28;20033;-39
2022/07/31 03:42:51;;;;;;;3.83;3.53;;;14.70;99.90;;;;;;5005930;28;20034;-37
2022/07/31 03:45:19;;;;;;;4.90;4.22;;;14.70;99.90;;;;;;5007548;28;20030;-39
2022/07/31 03:47:45;;;;;;;4.53;4.18;;;14.40;99.90;;;;;;5006259;28;20037;-37
2022/07/31 03:50:11;;;;;;;4.13;3.83;;;14.30;99.90;;;;;;5004775;28;20045;-38
2022/07/31 03:52:37;;;;;;;5.10;4.40;;;14.20;99.90;;;;;;5006614;28;20057;-39
2022/07/31 03:55:03;;;;;;;4.65;4.20;;;14.20;99.90;;;;;;5004848;28;20049;-39
2022/07/31 03:57:32;;;;;;;3.80;3.50;;;14.30;99.90;;;;;;5004690;28;20033;-38
2022/07/31 04:00:01;;;;;;;3.78;3.50;;;14.50;99.90;;;;;;5008122;28;20112;-38
2022/07/31 04:02:28;;;;;;;5.28;4.43;;;14.50;99.90;;;;;;5006904;28;20037;-37
2022/07/31 04:04:54;;;;;;;5.10;4.50;;;14.40;99.90;;;;;;5009147;28;20056;-38
2022/07/31 04:07:20;;;;;;;5.28;4.80;;;14.40;99.90;;;;;;5007870;28;20038;-36
2022/07/31 04:09:46;;;;;;;4.45;4.05;;;14.30;99.90;;;;;;5008091;28;20034;-36
2022/07/31 04:12:11;;;;;;;4.30;4.00;;;14.40;99.90;;;;;;5008270;28;20121;-39
2022/07/31 04:14:37;;;;;;;7.10;4.63;;;14.40;99.90;;;;;;5006089;28;20033;-37
2022/07/31 04:17:03;;;;;;;4.55;4.20;;;14.50;99.90;;;;;;5008109;28;20060;-39
2022/07/31 04:19:32;;;;;;;5.00;4.05;;;14.60;99.90;;;;;;5008764;28;20037;-37
2022/07/31 04:21:58;;;;;;;4.55;4.10;;;14.70;99.90;;;;;;5007697;28;20502;-39
2022/07/31 04:24:24;;;;;;;4.80;4.40;;;14.80;99.90;;;;;;5008961;28;20057;-38
2022/07/31 04:26:50;;;;;;;4.70;4.30;;;14.90;99.90;;;;;;5008632;28;20526;-37
2022/07/31 04:29:16;;;;;;;4.80;4.22;;;15.00;99.90;;;;;;5008178;28;20048;-37
2022/07/31 04:31:42;;;;;;;4.90;4.40;;;15.00;99.90;;;;;;5009661;28;20034;-37
2022/07/31 04:34:08;;;;;;;4.82;4.32;;;15.10;99.90;;;;;;5008670;28;20026;-38
2022/07/31 04:36:33;;;;;;;4.88;4.13;;;15.10;99.90;;;;;;5010059;28;20021;-39
2022/07/31 04:38:59;;;;;;;4.70;4.30;;;15.20;99.90;;;;;;5005517;28;20129;-37
2022/07/31 04:41:25;;;;;;;4.55;4.07;;;15.20;99.90;;;;;;5006959;28;20486;-40
2022/07/31 04:43:50;;;;;;;4.60;4.30;;;15.20;99.90;;;;;;5008244;28;20120;-38
2022/07/31 04:46:16;;;;;;;5.00;4.60;;;15.30;99.90;;;;;;5007140;28;20049;-39
2022/07/31 04:48:42;;;;;;;5.50;4.90;;;15.30;99.90;;;;;;5009006;28;20026;-39
2022/07/31 04:51:07;;;;;;;5.35;4.53;;;15.20;99.90;;;;;;5006875;28;20029;-37
2022/07/31 04:53:33;;;;;;;4.35;3.97;;;15.10;99.90;;;;;;5007955;28;20460;-39
2022/07/31 04:58:43;;;;;;;5.00;4.50;;;15.40;99.90;;;;;;5007592;28;20114;-40
2022/07/31 05:01:08;;;;;;;4.90;4.50;;;15.50;99.90;;;;;;5008659;28;20152;-39
2022/07/31 05:03:34;;;;;;;4.78;4.32;;;15.70;99.90;;;;;;5012074;28;20030;-39
2022/07/31 05:06:18;;;;;;;4.78;4.30;;;15.70;99.90;;;;;;5009617;28;20021;-39
2022/07/31 05:08:43;;;;;;;5.10;4.43;;;15.80;99.90;;;;;;5008183;28;20029;-39
2022/07/31 05:11:21;;;;;;;4.50;4.13;;;15.90;99.90;;;;;;5007912;28;20041;-38
2022/07/31 05:13:48;;;;;;;5.40;4.95;;;15.90;99.90;;;;;;5010310;28;20022;-38
2022/07/31 05:16:13;;;;;;;5.22;4.53;;;15.90;99.90;;;;;;5009180;28;20034;-36
2022/07/31 05:18:39;;;;;;;5.25;4.78;;;16.00;99.90;;;;;;5010509;28;20827;-38
2022/07/31 05:21:04;;;;;;;5.95;5.22;;;16.10;99.90;;;;;;5010181;28;20021;-40
2022/07/31 05:23:30;;;;;;;5.15;4.65;;;16.00;99.90;;;;;;5007979;28;20464;-37
2022/07/31 05:25:56;;;;;;;5.65;5.03;;;15.90;99.90;;;;;;5007023;28;20033;-40
2022/07/31 05:28:21;;;;;;;5.15;4.65;;;16.00;99.90;;;;;;5009451;28;20026;-39
2022/07/31 05:30:47;;;;;;;5.45;4.95;;;16.00;99.90;;;;;;5008298;28;20141;-39
2022/07/31 05:33:13;;;;;;;5.10;4.63;;;16.10;99.90;;;;;;5007245;28;20033;-38
2022/07/31 05:35:38;;;;;;;5.15;4.65;;;16.10;99.90;;;;;;5009095;28;20026;-39
2022/07/31 05:38:05;;;;;;;4.88;4.38;;;16.20;99.90;;;;;;5022940;28;20045;-39
2022/07/31 05:40:30;;;;;;;5.18;4.68;;;16.40;99.90;;;;;;5008845;28;20022;-39
2022/07/31 05:42:56;;;;;;;5.20;4.53;;;16.40;99.90;;;;;;5005746;28;20026;-36
2022/07/31 05:45:22;;;;;;;4.55;4.22;;;16.40;99.90;;;;;;5006823;28;20022;-38
2022/07/31 05:47:47;;;;;;;4.40;4.00;;;16.40;99.90;;;;;;5006959;28;20494;-38
2022/07/31 05:50:13;;;;;;;5.00;4.57;;;16.40;99.90;;;;;;5008419;28;20205;-38
2022/07/31 05:52:39;;;;;;;4.28;3.88;;;16.40;99.90;;;;;;5007024;28;20034;-39
2022/07/31 05:55:05;;;;;;;4.72;4.32;;;16.50;99.90;;;;;;5009567;28;20472;-36
2022/07/31 05:57:30;;;;;;;4.60;4.18;;;16.60;99.90;;;;;;5006767;28;20022;-38
2022/07/31 05:59:56;;;;;;;5.10;4.13;;;16.70;99.90;;;;;;5006153;28;20407;-39
2022/07/31 06:02:22;;;;;;;4.85;4.38;;;16.80;99.90;;;;;;5007759;28;20121;-40
2022/07/31 06:04:47;;;;;;;4.80;4.30;;;16.80;99.90;;;;;;4989736;28;20775;-39
2022/07/31 06:07:13;;;;;;;4.22;3.92;;;16.90;99.90;;;;;;5008321;28;20041;-40
2022/07/31 06:09:39;;;;;;;5.40;4.32;;;17.00;99.90;;;;;;5006366;28;20494;-39
2022/07/31 06:12:05;;;;;;;5.25;4.13;;;17.10;99.90;;;;;;5008849;28;20037;-39
2022/07/31 06:14:30;;;;;;;4.38;3.97;;;17.20;99.90;;;;;;5006960;28;20026;-36
2022/07/31 06:16:56;;;;;;;4.80;4.40;;;17.30;99.90;;;;;;5009926;28;20036;-37
2022/07/31 06:19:21;;;;;;;4.78;4.22;;;17.30;99.90;;;;;;5005892;28;20041;-37
2022/07/31 06:21:47;;;;;;;4.80;4.40;;;17.40;99.90;;;;;;5005586;28;20033;-36
2022/07/31 06:24:13;;;;;;;4.88;4.38;;;17.40;99.90;;;;;;5004390;28;20486;-40
2022/07/31 06:26:38;;;;;;;5.50;4.07;;;17.50;99.90;;;;;;5006567;28;20033;-39
2022/07/31 06:29:04;;;;;;;5.25;4.38;;;17.40;99.90;;;;;;5008806;28;20484;-37
2022/07/31 06:31:29;;;;;;;6.38;4.22;;;17.50;99.90;;;;;;5006451;28;20045;-37
2022/07/31 06:33:55;;;;;;;5.30;4.50;;;17.60;99.90;;;;;;5005373;28;20499;-40
2022/07/31 06:36:21;;;;;;;5.47;4.43;;;17.60;99.90;;;;;;5011087;28;20175;-37
2022/07/31 06:38:46;;;;;;;4.57;4.15;;;17.70;99.90;;;;;;5007053;28;20368;-39
2022/07/31 06:41:43;;;;;;;4.97;4.38;;;17.70;99.90;;;;;;5006743;28;20026;-37
2022/07/31 06:44:01;;;;;;;4.70;4.30;;;17.80;99.90;;;;;;5008799;28;20030;-38
2022/07/31 06:46:26;;;;;;;5.18;4.53;;;17.80;99.90;;;;;;5008174;28;20571;-38
2022/07/31 06:48:52;;;;;;;6.18;4.50;;;17.90;99.90;;;;;;5006919;28;20026;-40
2022/07/31 06:51:18;;;;;;;5.82;5.05;;;18.00;99.90;;;;;;5007532;28;20033;-37
2022/07/31 06:53:43;;;;;;;5.85;4.30;;;18.10;99.90;;;;;;5006245;28;20462;-39
2022/07/31 06:56:09;;;;;;;5.13;4.68;;;18.20;99.90;;;;;;5008462;28;20028;-39
2022/07/31 06:58:35;;;;;;;5.38;4.88;;;18.20;99.90;;;;;;5021171;28;20146;-38
2022/07/31 07:01:00;;;;;;;5.30;4.80;;;18.30;99.90;;;;;;5006084;28;20048;-39
2022/07/31 07:03:26;;;;;;;5.38;4.43;;;18.40;99.90;;;;;;5006909;28;20026;-37
2022/07/31 07:05:51;;;;;;;4.55;4.15;;;18.50;99.90;;;;;;5007076;28;20448;-39
2022/07/31 07:08:17;;;;;;;4.53;4.13;;;18.50;99.90;;;;;;5005888;28;20080;-40
2022/07/31 07:10:42;;;;;;;5.45;4.30;;;18.60;99.90;;;;;;5008106;28;20025;-40
2022/07/31 07:13:08;;;;;;;4.57;4.18;;;18.70;99.90;;;;;;5005579;28;20050;-37
2022/07/31 07:15:34;;;;;;;4.65;4.25;;;18.70;99.90;;;;;;5007327;28;20026;-39
2022/07/31 07:17:59;;;;;;;4.50;4.10;;;18.90;99.90;;;;;;5000188;28;20025;-38
2022/07/31 07:20:25;;;;;;;3.80;3.38;;;19.00;99.90;;;;;;5007489;28;20105;-40
2022/07/31 07:22:51;;;;;;;4.47;3.95;;;19.40;99.90;;;;;;5005627;28;20112;-39
2022/07/31 07:25:19;;;;;;;4.47;4.03;;;19.70;99.90;;;;;;5005428;28;20034;-39
2022/07/31 07:27:45;;;;;;;3.88;3.55;;;20.00;99.90;;;;;;5007573;28;20022;-37
2022/07/31 07:30:11;;;;;;;4.10;3.40;;;20.00;99.90;;;;;;5004892;28;20134;-40
2022/07/31 07:32:37;;;;;;;4.47;3.63;;;20.20;99.90;;;;;;5005119;28;20356;-40
2022/07/31 07:35:07;;;;;;;3.67;3.38;;;20.60;99.90;;;;;;5008120;28;20456;-38
2022/07/31 07:37:33;;;;;;;4.75;4.35;;;21.00;99.90;;;;;;5006741;28;20516;-40
2022/07/31 07:39:59;;;;;;;4.35;3.95;;;21.10;96.90;;;;;;5007203;28;20034;-38
2022/07/31 07:42:24;;;;;;;3.83;3.53;;;21.00;97.30;;;;;;5007474;28;20029;-40
2022/07/31 07:44:50;;;;;;;4.55;3.42;;;21.00;97.10;;;;;;5023395;28;20491;-39
2022/07/31 07:47:16;;;;;;;3.97;3.63;;;21.00;96.70;;;;;;5007172;28;20404;-40
2022/07/31 07:49:41;;;;;;;3.80;3.40;;;21.30;96.40;;;;;;5005088;28;20037;-37
2022/07/31 07:52:07;;;;;;;3.58;3.28;;;21.30;95.20;;;;;;5003289;28;21018;-39
2022/07/31 07:54:33;;;;;;;3.92;3.58;;;21.50;97.20;;;;;;5001926;28;20451;-37
2022/07/31 07:56:59;;;;;;;4.20;3.60;;;21.80;97.60;;;;;;5003489;28;20026;-39
2022/07/31 07:59:24;;;;;;;3.42;3.13;;;22.10;96.70;;;;;;5003678;28;20029;-37
2022/07/31 08:01:50;;;;;;;3.95;3.65;;;22.20;95.50;;;;;;5002006;28;20081;-38
2022/07/31 08:04:15;;;;;;;4.90;3.88;;;22.00;92.60;;;;;;5003527;28;20407;-38
2022/07/31 08:06:41;;;;;;;3.90;3.53;;;22.10;94.60;;;;;;5003067;28;20455;-36
2022/07/31 08:09:07;;;;;;;4.03;3.60;;;22.20;93.70;;;;;;5001999;28;20073;-38
2022/07/31 08:11:33;;;;;;;4.15;3.78;;;22.00;95.00;;;;;;4999951;28;20542;-37
2022/07/31 08:13:58;;;;;;;3.78;3.42;;;22.20;94.40;;;;;;4999468;28;20068;-38
2022/07/31 08:16:24;;;;;;;3.92;3.53;;;22.40;93.10;;;;;;4999610;28;20026;-36
2022/07/31 08:18:50;;;;;;;4.25;3.80;;;22.20;92.90;;;;;;5001994;28;20028;-39
2022/07/31 08:21:16;;;;;;;3.90;3.50;;;22.40;95.10;;;;;;5006393;28;20030;-38
2022/07/31 08:23:42;;;;;;;3.97;3.67;;;22.40;93.80;;;;;;5005998;28;20365;-39
2022/07/31 08:26:08;;;;;;;3.67;3.38;;;22.50;90.50;;;;;;5007055;28;20506;-36
2022/07/31 08:28:34;;;;;;;4.97;3.60;;;22.60;92.90;;;;;;5005962;28;20052;-38
2022/07/31 08:31:00;;;;;;;4.00;3.70;;;22.90;92.10;;;;;;5008091;28;20517;-39
2022/07/31 08:33:26;;;;;;;3.88;3.58;;;22.80;91.20;;;;;;5008463;28;20109;-37
2022/07/31 08:35:52;;;;;;;3.83;3.53;;;22.70;91.30;;;;;;5006621;28;20037;-39
2022/07/31 08:38:18;;;;;;;3.70;3.40;;;22.90;92.10;;;;;;5005567;28;20042;-38
2022/07/31 08:40:44;;;;;;;4.50;3.90;;;23.30;84.30;;;;;;5008828;28;20510;-36
2022/07/31 08:43:11;;;;;;;3.92;3.55;;;22.80;86.20;;;;;;5004875;28;20044;-37
2022/07/31 08:45:39;;;;;;;4.25;3.47;;;22.80;90.30;;;;;;5008158;28;20246;-38
2022/07/31 08:48:07;;;;;;;5.78;3.20;;;23.10;88.30;;;;;;5003782;28;20076;-38
2022/07/31 08:50:34;;;;;;;;;;;23.30;86.50;;;;;;5004113;28;20038;-36
2022/07/31 08:53:02;;;;;;;3.72;3.40;;;23.40;87.30;;;;;;5007504;28;19920;-38
2022/07/31 08:55:29;;;;;;;3.90;3.60;;;23.40;87.00;;;;;;5003041;28;20049;-39
2022/07/31 08:57:55;;;;;;;;;;;23.60;81.40;;;;;;5017603;28;20407;-39
2022/07/31 09:00:21;;;;;;;4.03;3.60;;;24.00;84.20;;;;;;5006304;28;19918;-38
2022/07/31 09:02:47;;;;;;;4.82;3.35;;;24.30;73.50;;;;;;5007711;28;20046;-37
2022/07/31 09:05:14;;;;;;;4.28;3.53;;;24.50;73.10;;;;;;5004529;28;20065;-38
2022/07/31 09:07:40;;;;;;;3.47;3.28;;;24.50;71.90;;;;;;5005127;28;20045;-39
2022/07/31 09:10:23;;;;;;;3.47;3.17;;;24.70;75.20;;;;;;5002997;28;20107;-39
2022/07/31 09:12:49;;;;;;;2.60;2.40;;;24.70;72.20;;;;;;5005355;28;20022;-38
2022/07/31 09:15:25;;;;;;;3.20;2.42;;;24.80;64.70;;;;;;5007175;28;20427;-39
2022/07/31 09:17:51;;;;;;;4.65;2.60;;;24.90;61.60;;;;;;5006400;28;20022;-37
2022/07/31 09:20:19;;;;;;;4.40;2.35;;;24.90;59.50;;;;;;5007874;28;20033;-39
2022/07/31 09:22:45;;;;;;;2.72;2.47;;;24.80;56.30;;;;;;5007831;28;20037;-37
2022/07/31 09:25:17;;;;;;;2.90;2.42;;;24.70;58.90;;;;;;5008037;28;20030;-38
2022/07/31 09:27:43;;;;;;;4.13;2.88;;;24.70;58.40;;;;;;5008123;28;20502;-38
2022/07/31 09:30:10;;;;;;;3.10;2.83;;;24.70;60.70;;;;;;5008766;28;20080;-38
2022/07/31 09:32:36;;;;;;;4.70;2.90;;;24.40;60.70;;;;;;5006016;28;20038;-37
2022/07/31 09:35:10;;;;;;;3.53;2.95;;;24.70;65.50;;;;;;5004296;28;20494;-39
2022/07/31 09:37:36;;;;;;;3.00;2.70;;;25.10;66.20;;;;;;5007264;28;20076;-38
2022/07/31 09:40:04;;;;;;;2.67;2.47;;;25.30;62.10;;;;;;5007300;28;20030;-37
2022/07/31 09:42:39;;;;;;;2.92;2.58;;;25.00;60.60;;;;;;5005000;28;20051;-39
2022/07/31 09:45:22;;;;;;;5.47;2.85;;;25.00;59.40;;;;;;5005191;28;20026;-39
2022/07/31 09:48:06;;;;;;;2.88;2.58;;;25.10;61.00;;;;;;5002199;28;20034;-38
2022/07/31 09:50:33;;;;;;;2.35;2.10;;;25.00;60.50;;;;;;5003498;28;20030;-38
2022/07/31 09:53:00;;;;;;;2.58;2.30;;;24.90;52.50;;;;;;5005950;28;20485;-37
2022/07/31 09:55:27;;;;;;;2.10;2.00;;;24.80;47.60;;;;;;5006031;28;20177;-40
2022/07/31 09:57:55;;;;;;;2.58;2.30;;;24.70;51.60;;;;;;5003771;28;20054;-38
2022/07/31 10:00:22;;;;;;;2.97;2.03;;;25.20;57.20;;;;;;5004070;28;20042;-39
2022/07/31 10:02:49;;;;;;;4.07;2.10;;;25.80;53.60;;;;;;5005663;28;20069;-40
2022/07/31 10:05:16;;;;;;;3.83;2.50;;;26.20;53.20;;;;;;5004959;28;20036;-40
2022/07/31 10:07:42;;;;;;;2.92;2.00;;;26.10;49.90;;;;;;5003090;28;20042;-39
2022/07/31 10:10:10;;;;;;;2.70;2.25;;;25.60;49.70;;;;;;5004262;28;20069;-40
2022/07/31 10:12:40;;;;;;;2.35;2.15;;;25.00;50.60;;;;;;5003325;28;20064;-37
2022/07/31 10:15:10;;;;;;;2.67;2.40;;;25.00;51.20;;;;;;5004146;28;20061;-37
2022/07/31 10:17:39;;;;;;;2.92;2.38;;;25.10;52.30;;;;;;5004987;28;20363;-39
2022/07/31 10:20:07;;;;;;;2.78;2.58;;;25.20;51.90;;;;;;5004398;28;20032;-36
2022/07/31 10:22:55;;;;;;;2.50;2.30;;;25.60;52.80;;;;;;5002084;28;20033;-36
2022/07/31 10:25:26;;;;;;;4.53;2.30;;;25.30;49.90;;;;;;5006986;28;20022;-37
2022/07/31 10:27:53;;;;;;;2.60;2.40;;;25.30;51.90;;;;;;5004879;28;20030;-36
2022/07/31 10:30:19;;;;;;;2.85;2.22;;;24.90;49.00;;;;;;5007216;28;20088;-39
2022/07/31 10:32:45;;;;;;;4.57;2.50;;;24.80;50.70;;;;;;5005741;28;20014;-38
2022/07/31 10:35:12;;;;;;;2.63;2.30;;;24.90;53.10;;;;;;5004732;28;20042;-36
2022/07/31 10:37:53;;;;;;;2.50;2.30;;;25.20;54.00;;;;;;5004924;28;20095;-39
2022/07/31 10:40:27;;;;;;;2.70;2.50;;;25.00;48.90;;;;;;4999786;28;20045;-38
2022/07/31 10:43:21;;;;;;;3.50;2.25;;;24.70;50.30;;;;;;5005504;28;20025;-40
2022/07/31 10:45:52;;;;;;;2.58;2.38;;;25.10;51.30;;;;;;5003609;28;20026;-39
2022/07/31 10:48:18;;;;;;;2.70;2.00;;;25.30;50.20;;;;;;5006252;28;20017;-36
2022/07/31 10:50:45;;;;;;;2.95;2.30;;;25.40;49.60;;;;;;5003290;28;20041;-39
2022/07/31 10:53:14;;;;;;;2.57;2.37;;;25.40;50.30;;;;;;5006519;28;20414;-38
2022/07/31 10:55:40;;;;;;;2.70;2.50;;;25.40;51.20;;;;;;5004783;28;20049;-37
2022/07/31 10:58:18;;;;;;;2.30;2.10;;;25.20;49.90;;;;;;5001066;28;20060;-36
2022/07/31 11:00:44;;;;;;;2.65;2.10;;;25.20;51.60;;;;;;4998753;28;20041;-38
2022/07/31 11:03:19;;;;;;;2.40;2.30;;;25.10;49.70;;;;;;5001381;28;20030;-39
2022/07/31 11:05:58;;;;;;;2.58;2.20;;;25.40;50.70;;;;;;5000497;28;20072;-37
2022/07/31 11:08:24;;;;;;;2.40;2.20;;;25.40;47.80;;;;;;5014510;28;20104;-37
2022/07/31 11:10:52;;;;;;;2.70;2.50;;;25.20;48.50;;;;;;5005417;28;20121;-38
2022/07/31 11:13:18;;;;;;;;;;;25.10;48.30;;;;;;5004732;28;20057;-36
2022/07/31 11:15:44;;;;;;;2.78;2.40;;;25.10;50.10;;;;;;5005468;28;20007;-37
2022/07/31 11:18:14;;;;;;;2.40;2.20;;;25.30;51.60;;;;;;5004544;28;20121;-39
2022/07/31 11:20:45;;;;;;;3.75;2.10;;;25.30;50.20;;;;;;5006168;28;20139;-39
2022/07/31 11:23:14;;;;;;;2.45;1.90;;;25.20;47.60;;;;;;5005973;28;20038;-39
2022/07/31 11:25:40;;;;;;;1.85;1.75;;;24.90;47.50;;;;;;5007303;28;20069;-37
2022/07/31 11:28:22;;;;;;;3.92;2.00;;;24.50;44.60;;;;;;5007031;28;20049;-39
2022/07/31 11:30:57;;;;;;;2.20;2.00;;;24.70;47.30;;;;;;5003262;28;20049;-37
2022/07/31 11:33:33;;;;;;;2.08;1.98;;;25.10;47.80;;;;;;5002583;28;20624;-36
2022/07/31 11:36:19;;;;;;;2.25;2.08;;;25.30;47.70;;;;;;5005501;28;20087;-39
2022/07/31 11:38:51;;;;;;;2.72;2.30;;;25.60;47.60;;;;;;5007777;28;20485;-40
2022/07/31 11:41:20;;;;;;;2.03;1.90;;;25.50;45.70;;;;;;5005951;28;20038;-37
2022/07/31 11:43:47;;;;;;;2.42;2.22;;;25.40;48.10;;;;;;5006989;28;20030;-36
2022/07/31 11:46:29;;;;;;;2.05;1.85;;;25.50;44.80;;;;;;5005577;28;20089;-38
2022/07/31 11:48:55;;;;;;;2.15;2.03;;;25.50;46.40;;;;;;5003798;28;20538;-37
2022/07/31 11:51:22;;;;;;;3.28;2.17;;;25.40;46.90;;;;;;5004188;28;20030;-40
2022/07/31 11:53:48;;;;;;;2.35;2.15;;;25.60;46.80;;;;;;5005538;28;20029;-39
2022/07/31 11:56:18;;;;;;;2.50;2.20;;;25.70;46.80;;;;;;5009517;28;20084;-38
2022/07/31 11:58:55;;;;;;;2.05;1.92;;;26.00;46.40;;;;;;5007522;28;20095;-36
2022/07/31 12:01:26;;;;;;;2.10;1.98;;;26.10;45.30;;;;;;5007954;28;20054;-36
2022/07/31 12:03:52;;;;;;;2.13;2.00;;;26.10;46.30;;;;;;5008277;28;20488;-39
2022/07/31 12:06:20;;;;;;;1.95;1.80;;;26.10;44.50;;;;;;5008353;28;21730;-37
2022/07/31 12:08:47;;;;;;;;;;;26.00;44.80;;;;;;5007280;28;20380;-40
2022/07/31 12:11:13;;;;;;;1.87;1.77;;;25.90;43.50;;;;;;5017848;28;19935;-36
2022/07/31 12:13:39;;;;;;;2.38;1.73;;;26.00;44.40;;;;;;5009998;28;20335;-38
2022/07/31 12:16:09;;;;;;;2.05;1.60;;;26.10;43.20;;;;;;5007609;28;20440;-36
2022/07/31 12:18:57;;;;;;;1.73;1.63;;;26.00;43.20;;;;;;5007656;28;20103;-36
2022/07/31 12:21:34;;;;;;;1.95;1.83;;;26.10;44.10;;;;;;5006975;28;20057;-38
2022/07/31 12:24:00;;;;;;;4.25;1.80;;;26.10;43.70;;;;;;5007007;28;20105;-36
2022/07/31 12:26:27;;;;;;;2.20;2.00;;;25.90;42.20;;;;;;5008133;28;20037;-37
2022/07/31 12:29:00;;;;;;;2.38;2.17;;;25.90;43.60;;;;;;5007339;28;20165;-39
2022/07/31 12:31:27;;;;;;;3.15;2.00;;;26.10;43.80;;;;;;5005263;28;20038;-39
2022/07/31 12:33:53;;;;;;;2.43;2.03;;;26.30;43.90;;;;;;5010051;28;20029;-37
2022/07/31 12:36:19;;;;;;;4.70;2.22;;;26.00;41.00;;;;;;5010444;28;20498;-40
2022/07/31 12:38:46;;;;;;;2.40;2.20;;;26.10;43.40;;;;;;5010624;28;20076;-38
2022/07/31 12:41:12;;;;;;;2.08;1.92;;;26.10;42.80;;;;;;5009914;28;20506;-39
2022/07/31 12:43:38;;;;;;;2.20;2.10;;;26.10;44.80;;;;;;5010013;28;20076;-39
2022/07/31 12:46:06;;;;;;;3.45;2.53;;;26.20;43.60;;;;;;5010299;28;20115;-38
2022/07/31 12:48:32;;;;;;;2.38;2.10;;;26.10;43.00;;;;;;5008023;28;20044;-39
2022/07/31 12:51:01;;;;;;;2.40;2.20;;;26.10;43.30;;;;;;5008497;28;20021;-39
2022/07/31 12:53:28;;;;;;;2.53;2.20;;;26.00;43.50;;;;;;5008529;28;20117;-39